sensor_id;sensor_type;location;lat;lon;timestamp;pressure;altitude;pressure_sealevel;temperature;humidity
29941;BME280;16801;53.562;10.038;2023-11-21T00:00:07;100947.34;;;9.76;100.00
29941;BME280;16801;53.562;10.038;2023-11-21T00:03:32;100945.41;;;9.67;100.00
29941;BME280;16801;53.562;10.038;2023-11-21T00:06:53;100936.22;;;9.70;100.00
29941;BME280;16801;53.562;10.038;2023-11-21T00:10:16;100943.84;;;9.53;100.00
29941;BME280;16801;53.562;10.038;2023-11-21T00:13:37;100960.84;;;9.54;100.00
29941;BME280;16801;53.562;10.038;2023-11-21T00:16:59;100962.09;;;9.50;100.00
29941;BME280;16801;53.562;10.038;2023-11-21T00:20:20;100968.50;;;9.38;100.00
29941;BME280;16801;53.562;10.038;2023-11-21T00:23:41;100970.34;;;9.26;100.00
29941;BME280;16801;53.562;10.038;2023-11-21T00:27:03;100971.84;;;9.30;100.00
29941;BME280;16801;53.562;10.038;2023-11-21T00:30:25;100972.06;;;9.27;100.00
29941;BME280;16801;53.562;10.038;2023-11-21T00:33:46;100979.63;;;9.33;100.00
29941;BME280;16801;53.562;10.038;2023-11-21T00:37:07;100986.59;;;9.36;100.00
29941;BME280;16801;53.562;10.038;2023-11-21T00:40:28;100992.13;;;9.23;100.00
29941;BME280;16801;53.562;10.038;2023-11-21T00:43:50;100995.56;;;9.25;100.00
29941;BME280;16801;53.562;10.038;2023-11-21T00:47:11;100991.63;;;9.29;100.00
29941;BME280;16801;53.562;10.038;2023-11-21T00:50:33;101001.03;;;9.35;100.00
29941;BME280;16801;53.562;10.038;2023-11-21T00:53:54;101008.50;;;9.20;100.00
29941;BME280;16801;53.562;10.038;2023-11-21T00:57:15;101011.47;;;9.06;100.00
29941;BME280;16801;53.562;10.038;2023-11-21T01:00:38;101019.88;;;9.02;100.00
29941;BME280;16801;53.562;10.038;2023-11-21T01:03:59;101032.09;;;9.06;100.00
29941;BME280;16801;53.562;10.038;2023-11-21T01:07:21;101035.78;;;8.94;100.00
29941;BME280;16801;53.562;10.038;2023-11-21T01:10:42;101052.19;;;8.91;100.00
29941;BME280;16801;53.562;10.038;2023-11-21T01:14:03;101051.31;;;8.90;100.00
29941;BME280;16801;53.562;10.038;2023-11-21T01:17:26;101056.69;;;8.90;100.00
29941;BME280;16801;53.562;10.038;2023-11-21T01:20:47;101066.34;;;8.93;100.00
29941;BME280;16801;53.562;10.038;2023-11-21T01:24:08;101068.28;;;8.79;100.00
29941;BME280;16801;53.562;10.038;2023-11-21T01:27:29;101071.09;;;8.78;100.00
29941;BME280;16801;53.562;10.038;2023-11-21T01:30:50;101081.97;;;8.88;100.00
29941;BME280;16801;53.562;10.038;2023-11-21T01:34:17;101076.69;;;8.75;100.00
29941;BME280;16801;53.562;10.038;2023-11-21T01:37:38;101079.91;;;8.80;100.00
29941;BME280;16801;53.562;10.038;2023-11-21T01:40:59;101078.97;;;8.57;100.00
29941;BME280;16801;53.562;10.038;2023-11-21T01:44:22;101082.56;;;8.69;100.00
29941;BME280;16801;53.562;10.038;2023-11-21T01:47:45;101096.97;;;8.79;100.00
29941;BME280;16801;53.562;10.038;2023-11-21T01:51:07;101089.91;;;8.78;100.00
29941;BME280;16801;53.562;10.038;2023-11-21T01:54:29;101088.69;;;8.82;100.00
29941;BME280;16801;53.562;10.038;2023-11-21T01:57:50;101098.63;;;8.58;100.00
29941;BME280;16801;53.562;10.038;2023-11-21T02:01:11;101105.50;;;8.62;100.00
29941;BME280;16801;53.562;10.038;2023-11-21T02:04:34;101099.63;;;8.57;100.00
29941;BME280;16801;53.562;10.038;2023-11-21T02:07:58;101112.41;;;8.42;100.00
29941;BME280;16801;53.562;10.038;2023-11-21T02:11:20;101119.41;;;8.56;100.00
29941;BME280;16801;53.562;10.038;2023-11-21T02:14:41;101121.38;;;8.65;100.00
29941;BME280;16801;53.562;10.038;2023-11-21T02:18:02;101116.53;;;8.35;100.00
29941;BME280;16801;53.562;10.038;2023-11-21T02:21:23;101125.59;;;8.45;100.00
29941;BME280;16801;53.562;10.038;2023-11-21T02:24:47;101126.31;;;8.47;100.00
29941;BME280;16801;53.562;10.038;2023-11-21T02:28:11;101128.41;;;8.44;100.00
29941;BME280;16801;53.562;10.038;2023-11-21T02:31:34;101145.94;;;8.13;100.00
29941;BME280;16801;53.562;10.038;2023-11-21T02:34:57;101145.66;;;8.29;100.00
29941;BME280;16801;53.562;10.038;2023-11-21T02:38:20;101153.75;;;8.16;100.00
29941;BME280;16801;53.562;10.038;2023-11-21T02:41:43;101152.31;;;8.23;100.00
29941;BME280;16801;53.562;10.038;2023-11-21T02:45:05;101157.22;;;8.42;100.00
29941;BME280;16801;53.562;10.038;2023-11-21T02:48:27;101164.13;;;8.33;100.00
29941;BME280;16801;53.562;10.038;2023-11-21T02:51:48;101168.63;;;8.33;100.00
29941;BME280;16801;53.562;10.038;2023-11-21T02:55:09;101177.84;;;8.41;100.00
29941;BME280;16801;53.562;10.038;2023-11-21T02:58:42;101174.19;;;8.42;100.00
29941;BME280;16801;53.562;10.038;2023-11-21T03:02:03;101174.06;;;8.44;100.00
29941;BME280;16801;53.562;10.038;2023-11-21T03:05:28;101171.66;;;8.52;100.00
29941;BME280;16801;53.562;10.038;2023-11-21T03:08:49;101168.22;;;8.50;100.00
29941;BME280;16801;53.562;10.038;2023-11-21T03:12:13;101183.59;;;8.48;100.00
29941;BME280;16801;53.562;10.038;2023-11-21T03:15:35;101181.66;;;8.50;100.00
29941;BME280;16801;53.562;10.038;2023-11-21T03:18:56;101190.19;;;8.44;100.00
29941;BME280;16801;53.562;10.038;2023-11-21T03:22:17;101185.50;;;8.35;100.00
29941;BME280;16801;53.562;10.038;2023-11-21T03:25:38;101195.00;;;8.28;100.00
29941;BME280;16801;53.562;10.038;2023-11-21T03:28:59;101207.97;;;8.21;100.00
29941;BME280;16801;53.562;10.038;2023-11-21T03:32:21;101204.69;;;8.18;100.00
29941;BME280;16801;53.562;10.038;2023-11-21T03:35:43;101210.38;;;8.13;100.00
29941;BME280;16801;53.562;10.038;2023-11-21T03:39:04;101211.44;;;8.11;100.00
29941;BME280;16801;53.562;10.038;2023-11-21T03:42:26;101223.59;;;8.03;100.00
29941;BME280;16801;53.562;10.038;2023-11-21T03:45:47;101234.31;;;8.16;100.00
29941;BME280;16801;53.562;10.038;2023-11-21T03:49:09;101230.34;;;8.22;100.00
29941;BME280;16801;53.562;10.038;2023-11-21T03:52:30;101239.34;;;8.33;100.00
29941;BME280;16801;53.562;10.038;2023-11-21T03:55:53;101240.06;;;8.35;100.00
29941;BME280;16801;53.562;10.038;2023-11-21T03:59:14;101249.97;;;8.35;100.00
29941;BME280;16801;53.562;10.038;2023-11-21T04:02:35;101257.06;;;8.36;100.00
29941;BME280;16801;53.562;10.038;2023-11-21T04:05:57;101265.25;;;8.34;100.00
29941;BME280;16801;53.562;10.038;2023-11-21T04:09:19;101270.19;;;8.28;100.00
29941;BME280;16801;53.562;10.038;2023-11-21T04:12:39;101268.25;;;8.30;100.00
29941;BME280;16801;53.562;10.038;2023-11-21T04:16:00;101278.66;;;8.34;100.00
29941;BME280;16801;53.562;10.038;2023-11-21T04:19:23;101279.63;;;8.33;100.00
29941;BME280;16801;53.562;10.038;2023-11-21T04:22:45;101285.63;;;8.37;100.00
29941;BME280;16801;53.562;10.038;2023-11-21T04:26:06;101283.69;;;8.39;100.00
29941;BME280;16801;53.562;10.038;2023-11-21T04:29:27;101289.41;;;8.34;100.00
29941;BME280;16801;53.562;10.038;2023-11-21T04:32:48;101298.72;;;8.41;100.00
29941;BME280;16801;53.562;10.038;2023-11-21T04:36:10;101308.28;;;8.45;100.00
29941;BME280;16801;53.562;10.038;2023-11-21T04:39:32;101310.78;;;8.36;100.00
29941;BME280;16801;53.562;10.038;2023-11-21T04:42:53;101310.53;;;8.39;100.00
29941;BME280;16801;53.562;10.038;2023-11-21T04:46:16;101310.47;;;8.28;100.00
29941;BME280;16801;53.562;10.038;2023-11-21T04:49:37;101321.31;;;8.26;100.00
29941;BME280;16801;53.562;10.038;2023-11-21T04:52:58;101320.03;;;8.32;100.00
29941;BME280;16801;53.562;10.038;2023-11-21T04:56:23;101317.56;;;8.03;100.00
29941;BME280;16801;53.562;10.038;2023-11-21T04:59:44;101328.63;;;7.99;100.00
29941;BME280;16801;53.562;10.038;2023-11-21T05:03:07;101333.47;;;8.06;100.00
29941;BME280;16801;53.562;10.038;2023-11-21T05:06:28;101339.78;;;8.18;100.00
29941;BME280;16801;53.562;10.038;2023-11-21T05:09:49;101341.97;;;8.26;100.00
29941;BME280;16801;53.562;10.038;2023-11-21T05:13:11;101348.16;;;8.26;100.00
29941;BME280;16801;53.562;10.038;2023-11-21T05:16:33;101349.44;;;8.21;100.00
29941;BME280;16801;53.562;10.038;2023-11-21T05:19:54;101361.59;;;8.14;100.00
29941;BME280;16801;53.562;10.038;2023-11-21T05:23:15;101357.75;;;8.18;100.00
29941;BME280;16801;53.562;10.038;2023-11-21T05:26:36;101357.50;;;8.21;100.00
29941;BME280;16801;53.562;10.038;2023-11-21T05:30:00;101373.63;;;8.21;100.00
29941;BME280;16801;53.562;10.038;2023-11-21T05:33:22;101369.75;;;8.12;100.00
29941;BME280;16801;53.562;10.038;2023-11-21T05:36:43;101374.81;;;8.04;100.00
29941;BME280;16801;53.562;10.038;2023-11-21T05:40:06;101380.59;;;8.11;100.00
29941;BME280;16801;53.562;10.038;2023-11-21T05:43:28;101385.88;;;8.12;100.00
29941;BME280;16801;53.562;10.038;2023-11-21T05:46:51;101386.72;;;8.13;100.00
29941;BME280;16801;53.562;10.038;2023-11-21T05:50:14;101392.97;;;8.00;100.00
29941;BME280;16801;53.562;10.038;2023-11-21T05:53:36;101394.78;;;8.00;100.00
29941;BME280;16801;53.562;10.038;2023-11-21T05:56:59;101412.81;;;7.85;100.00
29941;BME280;16801;53.562;10.038;2023-11-21T06:00:20;101409.50;;;7.94;100.00
29941;BME280;16801;53.562;10.038;2023-11-21T06:03:42;101422.50;;;8.00;100.00
29941;BME280;16801;53.562;10.038;2023-11-21T06:07:03;101422.06;;;8.06;100.00
29941;BME280;16801;53.562;10.038;2023-11-21T06:10:25;101428.81;;;8.12;100.00
29941;BME280;16801;53.562;10.038;2023-11-21T06:13:46;101432.56;;;8.22;100.00
29941;BME280;16801;53.562;10.038;2023-11-21T06:17:07;101449.41;;;8.26;100.00
29941;BME280;16801;53.562;10.038;2023-11-21T06:20:30;101453.59;;;8.30;100.00
29941;BME280;16801;53.562;10.038;2023-11-21T06:23:51;101459.81;;;8.30;100.00
29941;BME280;16801;53.562;10.038;2023-11-21T06:27:12;101465.19;;;8.30;100.00
29941;BME280;16801;53.562;10.038;2023-11-21T06:30:33;101465.50;;;8.26;100.00
29941;BME280;16801;53.562;10.038;2023-11-21T06:33:54;101470.34;;;8.33;100.00
29941;BME280;16801;53.562;10.038;2023-11-21T06:37:16;101468.50;;;8.34;100.00
29941;BME280;16801;53.562;10.038;2023-11-21T06:40:37;101476.47;;;8.35;100.00
29941;BME280;16801;53.562;10.038;2023-11-21T06:43:58;101486.25;;;8.36;100.00
29941;BME280;16801;53.562;10.038;2023-11-21T06:47:19;101494.31;;;8.36;100.00
29941;BME280;16801;53.562;10.038;2023-11-21T06:50:40;101501.94;;;8.30;100.00
29941;BME280;16801;53.562;10.038;2023-11-21T06:54:03;101494.75;;;8.30;100.00
29941;BME280;16801;53.562;10.038;2023-11-21T06:57:24;101505.06;;;8.36;100.00
29941;BME280;16801;53.562;10.038;2023-11-21T07:00:44;101505.13;;;8.35;100.00
29941;BME280;16801;53.562;10.038;2023-11-21T07:04:08;101520.41;;;8.34;100.00
29941;BME280;16801;53.562;10.038;2023-11-21T07:07:28;101523.09;;;8.34;100.00
29941;BME280;16801;53.562;10.038;2023-11-21T07:10:51;101519.44;;;8.35;100.00
29941;BME280;16801;53.562;10.038;2023-11-21T07:14:12;101530.31;;;8.34;100.00
29941;BME280;16801;53.562;10.038;2023-11-21T07:17:36;101540.50;;;8.29;100.00
29941;BME280;16801;53.562;10.038;2023-11-21T07:20:57;101549.00;;;8.35;100.00
29941;BME280;16801;53.562;10.038;2023-11-21T07:24:18;101558.22;;;8.31;100.00
29941;BME280;16801;53.562;10.038;2023-11-21T07:27:41;101565.97;;;8.36;100.00
29941;BME280;16801;53.562;10.038;2023-11-21T07:31:02;101570.81;;;8.43;100.00
29941;BME280;16801;53.562;10.038;2023-11-21T07:34:23;101573.50;;;8.43;100.00
29941;BME280;16801;53.562;10.038;2023-11-21T07:37:47;101578.22;;;8.40;100.00
29941;BME280;16801;53.562;10.038;2023-11-21T07:41:08;101579.41;;;8.36;100.00
29941;BME280;16801;53.562;10.038;2023-11-21T07:44:30;101587.03;;;8.42;100.00
29941;BME280;16801;53.562;10.038;2023-11-21T07:47:51;101594.13;;;8.43;100.00
29941;BME280;16801;53.562;10.038;2023-11-21T07:51:12;101596.19;;;8.52;100.00
29941;BME280;16801;53.562;10.038;2023-11-21T07:54:33;101596.72;;;8.44;100.00
29941;BME280;16801;53.562;10.038;2023-11-21T07:57:55;101594.75;;;8.34;100.00
29941;BME280;16801;53.562;10.038;2023-11-21T08:01:18;101603.03;;;8.43;100.00
29941;BME280;16801;53.562;10.038;2023-11-21T08:04:41;101610.34;;;8.41;100.00
29941;BME280;16801;53.562;10.038;2023-11-21T08:08:02;101614.66;;;8.44;100.00
29941;BME280;16801;53.562;10.038;2023-11-21T08:11:23;101617.47;;;8.42;100.00
29941;BME280;16801;53.562;10.038;2023-11-21T08:14:46;101617.50;;;8.55;100.00
29941;BME280;16801;53.562;10.038;2023-11-21T08:18:08;101628.25;;;8.55;100.00
29941;BME280;16801;53.562;10.038;2023-11-21T08:21:29;101628.00;;;8.58;100.00
29941;BME280;16801;53.562;10.038;2023-11-21T08:24:50;101625.25;;;8.59;100.00
29941;BME280;16801;53.562;10.038;2023-11-21T08:28:11;101640.41;;;8.73;100.00
29941;BME280;16801;53.562;10.038;2023-11-21T08:31:33;101644.28;;;8.81;100.00
29941;BME280;16801;53.562;10.038;2023-11-21T08:34:56;101646.66;;;8.86;100.00
29941;BME280;16801;53.562;10.038;2023-11-21T08:38:17;101649.66;;;8.81;100.00
29941;BME280;16801;53.562;10.038;2023-11-21T08:41:38;101649.78;;;8.80;100.00
29941;BME280;16801;53.562;10.038;2023-11-21T08:45:01;101664.41;;;8.76;100.00
29941;BME280;16801;53.562;10.038;2023-11-21T08:48:22;101671.91;;;8.71;100.00
29941;BME280;16801;53.562;10.038;2023-11-21T08:51:45;101671.91;;;8.71;100.00
29941;BME280;16801;53.562;10.038;2023-11-21T08:55:06;101683.03;;;8.52;100.00
29941;BME280;16801;53.562;10.038;2023-11-21T08:58:28;101686.16;;;8.46;100.00
29941;BME280;16801;53.562;10.038;2023-11-21T09:01:49;101696.94;;;8.59;100.00
29941;BME280;16801;53.562;10.038;2023-11-21T09:05:10;101707.13;;;8.54;100.00
29941;BME280;16801;53.562;10.038;2023-11-21T09:08:34;101708.16;;;8.51;100.00
29941;BME280;16801;53.562;10.038;2023-11-21T09:11:55;101710.78;;;8.53;100.00
29941;BME280;16801;53.562;10.038;2023-11-21T09:15:16;101711.72;;;8.52;100.00
29941;BME280;16801;53.562;10.038;2023-11-21T09:18:37;101716.47;;;8.48;100.00
29941;BME280;16801;53.562;10.038;2023-11-21T09:21:59;101731.66;;;8.62;100.00
29941;BME280;16801;53.562;10.038;2023-11-21T09:25:21;101735.31;;;8.61;100.00
29941;BME280;16801;53.562;10.038;2023-11-21T09:28:43;101743.78;;;8.55;100.00
29941;BME280;16801;53.562;10.038;2023-11-21T09:32:06;101749.91;;;8.57;100.00
29941;BME280;16801;53.562;10.038;2023-11-21T09:35:27;101748.00;;;8.59;100.00
29941;BME280;16801;53.562;10.038;2023-11-21T09:38:48;101750.88;;;8.56;100.00
29941;BME280;16801;53.562;10.038;2023-11-21T09:42:13;101750.41;;;8.49;100.00
29941;BME280;16801;53.562;10.038;2023-11-21T09:45:36;101755.66;;;8.65;100.00
29941;BME280;16801;53.562;10.038;2023-11-21T09:49:00;101757.28;;;8.67;100.00
29941;BME280;16801;53.562;10.038;2023-11-21T09:52:25;101776.91;;;8.68;100.00
29941;BME280;16801;53.562;10.038;2023-11-21T09:55:48;101775.41;;;8.64;100.00
29941;BME280;16801;53.562;10.038;2023-11-21T09:59:14;101777.50;;;8.73;100.00
29941;BME280;16801;53.562;10.038;2023-11-21T10:02:36;101777.69;;;8.70;100.00
29941;BME280;16801;53.562;10.038;2023-11-21T10:05:58;101790.00;;;8.86;100.00
29941;BME280;16801;53.562;10.038;2023-11-21T10:09:21;101792.63;;;9.01;100.00
29941;BME280;16801;53.562;10.038;2023-11-21T10:12:42;101789.63;;;8.93;100.00
29941;BME280;16801;53.562;10.038;2023-11-21T10:16:07;101792.00;;;9.10;100.00
29941;BME280;16801;53.562;10.038;2023-11-21T10:19:32;101793.66;;;9.25;100.00
29941;BME280;16801;53.562;10.038;2023-11-21T10:22:53;101797.34;;;9.36;100.00
29941;BME280;16801;53.562;10.038;2023-11-21T10:26:14;101789.91;;;9.65;100.00
29941;BME280;16801;53.562;10.038;2023-11-21T10:29:35;101789.34;;;9.98;100.00
29941;BME280;16801;53.562;10.038;2023-11-21T10:33:00;101791.94;;;10.12;100.00
29941;BME280;16801;53.562;10.038;2023-11-21T10:36:25;101799.59;;;10.05;100.00
29941;BME280;16801;53.562;10.038;2023-11-21T10:39:47;101814.78;;;9.81;100.00
29941;BME280;16801;53.562;10.038;2023-11-21T10:43:08;101814.75;;;9.43;100.00
29941;BME280;16801;53.562;10.038;2023-11-21T10:46:30;101825.00;;;9.38;100.00
29941;BME280;16801;53.562;10.038;2023-11-21T10:49:52;101821.56;;;9.36;100.00
29941;BME280;16801;53.562;10.038;2023-11-21T10:53:13;101823.59;;;9.45;100.00
29941;BME280;16801;53.562;10.038;2023-11-21T10:56:36;101830.28;;;9.40;100.00
29941;BME280;16801;53.562;10.038;2023-11-21T11:00:00;101831.56;;;9.34;100.00
29941;BME280;16801;53.562;10.038;2023-11-21T11:03:23;101826.66;;;9.14;100.00
29941;BME280;16801;53.562;10.038;2023-11-21T11:06:55;101826.84;;;8.99;100.00
29941;BME280;16801;53.562;10.038;2023-11-21T11:10:18;101833.75;;;8.76;100.00
29941;BME280;16801;53.562;10.038;2023-11-21T11:13:43;101843.69;;;8.88;100.00
29941;BME280;16801;53.562;10.038;2023-11-21T11:17:07;101847.78;;;8.94;100.00
29941;BME280;16801;53.562;10.038;2023-11-21T11:20:32;101848.72;;;8.80;100.00
29941;BME280;16801;53.562;10.038;2023-11-21T11:24:09;101847.03;;;8.92;100.00
29941;BME280;16801;53.562;10.038;2023-11-21T11:27:39;101843.41;;;8.93;100.00
29941;BME280;16801;53.562;10.038;2023-11-21T11:31:07;101833.63;;;9.04;100.00
29941;BME280;16801;53.562;10.038;2023-11-21T11:34:36;101832.13;;;9.00;100.00
29941;BME280;16801;53.562;10.038;2023-11-21T11:38:01;101846.31;;;9.02;100.00
29941;BME280;16801;53.562;10.038;2023-11-21T11:41:26;101850.09;;;9.12;100.00
29941;BME280;16801;53.562;10.038;2023-11-21T11:44:51;101850.44;;;9.20;100.00
29941;BME280;16801;53.562;10.038;2023-11-21T11:48:16;101856.34;;;9.13;100.00
29941;BME280;16801;53.562;10.038;2023-11-21T11:51:40;101856.69;;;9.21;100.00
29941;BME280;16801;53.562;10.038;2023-11-21T11:55:02;101852.22;;;9.34;100.00
29941;BME280;16801;53.562;10.038;2023-11-21T11:58:37;101855.75;;;9.22;100.00
29941;BME280;16801;53.562;10.038;2023-11-21T12:01:58;101857.38;;;8.98;100.00
29941;BME280;16801;53.562;10.038;2023-11-21T12:05:20;101856.88;;;9.05;100.00
29941;BME280;16801;53.562;10.038;2023-11-21T12:08:43;101854.31;;;9.16;100.00
29941;BME280;16801;53.562;10.038;2023-11-21T12:12:06;101873.38;;;9.13;100.00
29941;BME280;16801;53.562;10.038;2023-11-21T12:15:28;101879.50;;;8.89;100.00
29941;BME280;16801;53.562;10.038;2023-11-21T12:18:50;101876.72;;;8.90;100.00
29941;BME280;16801;53.562;10.038;2023-11-21T12:22:11;101886.03;;;8.84;100.00
29941;BME280;16801;53.562;10.038;2023-11-21T12:25:33;101894.13;;;8.70;100.00
29941;BME280;16801;53.562;10.038;2023-11-21T12:28:56;101903.19;;;8.55;100.00
29941;BME280;16801;53.562;10.038;2023-11-21T12:32:19;101909.63;;;8.53;100.00
29941;BME280;16801;53.562;10.038;2023-11-21T12:35:40;101917.22;;;8.46;100.00
29941;BME280;16801;53.562;10.038;2023-11-21T12:39:03;101917.88;;;8.50;100.00
29941;BME280;16801;53.562;10.038;2023-11-21T12:42:24;101925.84;;;8.51;100.00
29941;BME280;16801;53.562;10.038;2023-11-21T12:45:46;101926.16;;;8.47;100.00
29941;BME280;16801;53.562;10.038;2023-11-21T12:49:10;101923.53;;;8.45;100.00
29941;BME280;16801;53.562;10.038;2023-11-21T12:52:36;101931.53;;;8.47;100.00
29941;BME280;16801;53.562;10.038;2023-11-21T12:55:58;101932.75;;;8.41;100.00
29941;BME280;16801;53.562;10.038;2023-11-21T12:59:20;101946.41;;;8.38;100.00
29941;BME280;16801;53.562;10.038;2023-11-21T13:02:41;101957.44;;;8.34;100.00
29941;BME280;16801;53.562;10.038;2023-11-21T13:06:04;101951.03;;;8.21;100.00
29941;BME280;16801;53.562;10.038;2023-11-21T13:09:27;101956.69;;;8.16;100.00
29941;BME280;16801;53.562;10.038;2023-11-21T13:12:48;101957.94;;;8.25;100.00
29941;BME280;16801;53.562;10.038;2023-11-21T13:16:11;101966.81;;;8.27;100.00
29941;BME280;16801;53.562;10.038;2023-11-21T13:19:34;101965.25;;;8.23;100.00
29941;BME280;16801;53.562;10.038;2023-11-21T13:22:57;101968.44;;;8.29;100.00
29941;BME280;16801;53.562;10.038;2023-11-21T13:26:21;101975.50;;;8.16;100.00
29941;BME280;16801;53.562;10.038;2023-11-21T13:29:43;101984.53;;;8.15;100.00
29941;BME280;16801;53.562;10.038;2023-11-21T13:33:04;101984.31;;;8.18;100.00
29941;BME280;16801;53.562;10.038;2023-11-21T13:36:26;101986.72;;;8.23;100.00
29941;BME280;16801;53.562;10.038;2023-11-21T13:39:55;101992.09;;;8.23;100.00
29941;BME280;16801;53.562;10.038;2023-11-21T13:43:17;101993.91;;;8.22;100.00
29941;BME280;16801;53.562;10.038;2023-11-21T13:46:41;101996.81;;;8.19;100.00
29941;BME280;16801;53.562;10.038;2023-11-21T13:50:02;101999.50;;;8.19;100.00
29941;BME280;16801;53.562;10.038;2023-11-21T13:53:26;102002.50;;;7.99;100.00
29941;BME280;16801;53.562;10.038;2023-11-21T13:56:48;102009.44;;;8.03;100.00
29941;BME280;16801;53.562;10.038;2023-11-21T14:00:11;102017.56;;;8.01;100.00
29941;BME280;16801;53.562;10.038;2023-11-21T14:03:53;102023.03;;;8.00;100.00
29941;BME280;16801;53.562;10.038;2023-11-21T14:07:20;102025.59;;;7.87;100.00
29941;BME280;16801;53.562;10.038;2023-11-21T14:10:52;102026.47;;;7.88;100.00
29941;BME280;16801;53.562;10.038;2023-11-21T14:14:19;102034.38;;;7.75;100.00
29941;BME280;16801;53.562;10.038;2023-11-21T14:17:40;102042.00;;;7.67;100.00
29941;BME280;16801;53.562;10.038;2023-11-21T14:21:01;102043.00;;;7.80;100.00
29941;BME280;16801;53.562;10.038;2023-11-21T14:24:22;102054.50;;;7.82;100.00
29941;BME280;16801;53.562;10.038;2023-11-21T14:27:45;102059.72;;;7.70;100.00
29941;BME280;16801;53.562;10.038;2023-11-21T14:31:07;102070.56;;;7.68;100.00
29941;BME280;16801;53.562;10.038;2023-11-21T14:34:32;102074.28;;;7.66;100.00
29941;BME280;16801;53.562;10.038;2023-11-21T14:37:53;102072.66;;;7.63;100.00
29941;BME280;16801;53.562;10.038;2023-11-21T14:41:14;102075.94;;;7.68;100.00
29941;BME280;16801;53.562;10.038;2023-11-21T14:44:36;102074.63;;;7.60;100.00
29941;BME280;16801;53.562;10.038;2023-11-21T14:48:02;102071.78;;;7.63;100.00
29941;BME280;16801;53.562;10.038;2023-11-21T14:51:27;102084.06;;;7.51;100.00
29941;BME280;16801;53.562;10.038;2023-11-21T14:54:51;102104.34;;;7.57;100.00
29941;BME280;16801;53.562;10.038;2023-11-21T14:58:23;102111.78;;;7.52;100.00
29941;BME280;16801;53.562;10.038;2023-11-21T15:01:47;102114.34;;;7.53;100.00
29941;BME280;16801;53.562;10.038;2023-11-21T15:05:16;102113.16;;;7.59;100.00
29941;BME280;16801;53.562;10.038;2023-11-21T15:08:38;102127.16;;;7.64;100.00
29941;BME280;16801;53.562;10.038;2023-11-21T15:12:03;102138.25;;;7.58;100.00
29941;BME280;16801;53.562;10.038;2023-11-21T15:15:33;102148.47;;;7.51;100.00
29941;BME280;16801;53.562;10.038;2023-11-21T15:18:56;102163.00;;;7.47;100.00
29941;BME280;16801;53.562;10.038;2023-11-21T15:22:19;102158.91;;;7.24;100.00
29941;BME280;16801;53.562;10.038;2023-11-21T15:25:40;102165.19;;;7.08;100.00
29941;BME280;16801;53.562;10.038;2023-11-21T15:29:01;102169.31;;;6.98;100.00
29941;BME280;16801;53.562;10.038;2023-11-21T15:32:22;102171.78;;;7.01;100.00
29941;BME280;16801;53.562;10.038;2023-11-21T15:35:43;102170.88;;;7.02;100.00
29941;BME280;16801;53.562;10.038;2023-11-21T15:39:05;102174.00;;;7.10;100.00
29941;BME280;16801;53.562;10.038;2023-11-21T15:42:27;102170.88;;;7.02;100.00
29941;BME280;16801;53.562;10.038;2023-11-21T15:45:48;102179.53;;;7.07;100.00
29941;BME280;16801;53.562;10.038;2023-11-21T15:49:10;102186.47;;;7.11;100.00
29941;BME280;16801;53.562;10.038;2023-11-21T15:52:33;102191.44;;;7.01;100.00
29941;BME280;16801;53.562;10.038;2023-11-21T15:55:55;102192.84;;;7.08;100.00
29941;BME280;16801;53.562;10.038;2023-11-21T15:59:16;102209.03;;;7.07;100.00
29941;BME280;16801;53.562;10.038;2023-11-21T16:02:37;102215.00;;;7.12;100.00
29941;BME280;16801;53.562;10.038;2023-11-21T16:05:58;102221.38;;;7.09;100.00
29941;BME280;16801;53.562;10.038;2023-11-21T16:09:19;102231.00;;;7.13;100.00
29941;BME280;16801;53.562;10.038;2023-11-21T16:12:44;102229.19;;;7.14;100.00
29941;BME280;16801;53.562;10.038;2023-11-21T16:16:06;102241.50;;;7.18;100.00
29941;BME280;16801;53.562;10.038;2023-11-21T16:19:28;102246.16;;;7.14;100.00
29941;BME280;16801;53.562;10.038;2023-11-21T16:22:49;102258.78;;;7.12;100.00
29941;BME280;16801;53.562;10.038;2023-11-21T16:26:10;102249.69;;;7.32;100.00
29941;BME280;16801;53.562;10.038;2023-11-21T16:29:33;102255.69;;;7.20;100.00
29941;BME280;16801;53.562;10.038;2023-11-21T16:33:58;102269.97;;;7.20;100.00
29941;BME280;16801;53.562;10.038;2023-11-21T16:37:16;102269.63;;;7.26;100.00
29941;BME280;16801;53.562;10.038;2023-11-21T16:40:37;102277.91;;;7.22;100.00
29941;BME280;16801;53.562;10.038;2023-11-21T16:43:58;102280.59;;;7.22;100.00
29941;BME280;16801;53.562;10.038;2023-11-21T16:47:21;102292.22;;;7.22;100.00
29941;BME280;16801;53.562;10.038;2023-11-21T16:50:43;102293.00;;;7.24;100.00
29941;BME280;16801;53.562;10.038;2023-11-21T16:54:04;102302.69;;;7.27;100.00
29941;BME280;16801;53.562;10.038;2023-11-21T16:57:25;102302.25;;;7.19;100.00
29941;BME280;16801;53.562;10.038;2023-11-21T17:00:46;102312.00;;;7.20;100.00
29941;BME280;16801;53.562;10.038;2023-11-21T17:04:08;102322.72;;;7.20;100.00
29941;BME280;16801;53.562;10.038;2023-11-21T17:07:31;102321.88;;;7.02;100.00
29941;BME280;16801;53.562;10.038;2023-11-21T17:10:52;102327.38;;;6.99;100.00
29941;BME280;16801;53.562;10.038;2023-11-21T17:14:13;102344.38;;;6.81;100.00
29941;BME280;16801;53.562;10.038;2023-11-21T17:17:34;102345.94;;;6.68;100.00
29941;BME280;16801;53.562;10.038;2023-11-21T17:20:56;102353.53;;;6.77;100.00
29941;BME280;16801;53.562;10.038;2023-11-21T17:24:17;102357.44;;;6.70;100.00